Containerships 6 — DABH — position and weather

sailwx.info

Track history (hours):
 
Tides and Currents Weather Stations Pressure Air Temp Water Temp Dewpoint Dewpoint Depression Visibility Wind Speed Wind Dir Waves Ship Positions

Containerships 6

Last reported at 2014-Sep-16 10:19 UTC. Time now 2014-Sep-16 15:26 UTC.
Position N 57°49' E 010°25'.

Length 155 m; beam 21.8 m; draft 8.9 m.

Type: Ship (hazmat cat A). MMSI: 211315096.

Date/timePositionNaut miles runAvg speedWind from/ knotsBaromVisibWave heightAir tempDewpointWater temp
2014-Sep-16 10:19N 57°49' E 010°25'1316.9
2014-Sep-16 09:33N 57°47' E 010°49'1818.5
2014-Sep-16 08:33N 57°35' E 011°15'1717.1
2014-Sep-16 07:33N 57°24' E 011°39'1817.7
2014-Sep-16 06:33N 57°06' E 011°40'1818.0
2014-Sep-16 05:33N 56°49' E 011°51'1615.9
2014-Sep-16 04:33N 56°34' E 011°42'1716.8
2014-Sep-16 03:33N 56°20' E 011°27'1716.7
2014-Sep-16 02:34N 56°06' E 011°09'3816.4
2014-Sep-16 00:14N 55°29' E 010°54'1617.6
2014-Sep-15 23:19N 55°14' E 011°06'3316.8
2014-Sep-15 21:21N 54°42' E 010°54'1518.7
2014-Sep-15 20:34N 54°34' E 011°15'1918.7
2014-Sep-15 19:33N 54°26' E 011°45'1616.3
2014-Sep-15 18:33N 54°29' E 012°12'1817.5
2014-Sep-15 17:33N 54°43' E 012°32'1817.8
2014-Sep-15 16:33N 54°51' E 012°60'1818.1
2014-Sep-15 15:34N 54°57' E 013°29'1817.8
2014-Sep-15 14:33N 55°03' E 013°58'1817.6
2014-Sep-15 13:33N 55°15' E 014°21'1818.1
2014-Sep-15 12:33N 55°29' E 014°41'1818.1
2014-Sep-15 11:33N 55°38' E 015°09'6218.2
2014-Sep-15 08:10N 56°09' E 016°45'5418.0
2014-Sep-15 05:11N 56°42' E 018°01'1118.2
2014-Sep-15 04:33N 56°48' E 018°18'1818.3
2014-Sep-15 03:33N 56°57' E 018°47'2018.0
2014-Sep-15 02:27N 57°07' E 019°19'186 5.3
2014-Sep-13 15:24N 59°34' E 022°57'1618.3
2014-Sep-13 14:33N 59°38' E 023°27'1818.2
2014-Sep-13 13:33N 59°44' E 024°01'1615.9
2014-Sep-13 12:33N 59°48' E 024°32'25 8.2
2014-Sep-13 09:31N 60°04' E 025°09'7 1.4
2014-Sep-13 04:32N 60°11' E 025°13'3112.6
2014-Sep-13 02:05N 59°60' E 026°10'1019.1
2014-Sep-13 01:34N 60°01' E 026°30'1918.3
2014-Sep-13 00:32N 60°01' E 027°08'10 0.5
2014-Sep-12 05:26N 59°59' E 026°48'1516.7
2014-Sep-12 04:34N 59°57' E 026°19'1917.3
2014-Sep-12 03:27N 59°52' E 025°42'3317.4
2014-Sep-12 01:33N 59°45' E 024°38'2117.0
2014-Sep-12 00:20N 59°39' E 023°58'1317.2
2014-Sep-11 23:33N 59°35' E 023°34'318 8.5
2014-Sep-10 10:13N 55°56' E 016°21'1517.3
2014-Sep-10 09:21N 55°48' E 015°58'1617.7
2014-Sep-10 08:27N 55°41' E 015°33'1617.7
2014-Sep-10 07:33N 55°33' E 015°09'1817.8
2014-Sep-10 06:33N 55°25' E 014°41'1717.3
2014-Sep-10 05:33N 55°11' E 014°22'1716.9
2014-Sep-10 04:33N 55°00' E 013°60'1717.4
2014-Sep-10 03:33N 54°54' E 013°31'138136.3
2014-Sep-10 02:33N 54°18' E 009°42'104104.7
2014-Sep-10 01:33N 54°42' E 012°36'1717.3
2014-Sep-10 00:33N 54°30' E 012°14'1514.9
2014-Sep-09 23:33N 54°24' E 011°50'97 8.6
2014-Sep-09 12:16N 53°55' E 009°11'2 3.0
2014-Sep-09 11:31N 53°54' E 009°09'1 1.5
2014-Sep-09 10:33N 53°53' E 009°06'1 1.2
2014-Sep-09 09:33N 53°52' E 009°05'1312.6
2014-Sep-09 08:33N 53°52' E 008°44'1818.2
2014-Sep-09 07:33N 53°59' E 008°15'1918.2
2014-Sep-09 06:30N 53°56' E 007°43'5518.0
2014-Sep-09 03:29N 53°44' E 006°13'1617.5
2014-Sep-09 02:33N 53°39' E 005°47'1717.3
2014-Sep-09 01:33N 53°33' E 005°20'1717.0
2014-Sep-09 00:34N 53°27' E 004°53'1616.2
2014-Sep-08 23:33N 53°14' E 004°36'3717.0
2014-Sep-08 21:24N 52°42' E 004°07'1417.0
2014-Sep-08 20:33N 52°30' E 003°54'1717.0
2014-Sep-08 19:34N 52°13' E 003°54'1313.2
2014-Sep-08 18:34N 52°00' E 004°01'1413.5
2014-Sep-08 17:33N 51°54' E 004°20'3 3.3
2014-Sep-08 16:33N 51°53' E 004°25'0 0.0
2014-Sep-08 15:33N 51°53' E 004°25'0 0.0
2014-Sep-08 14:34N 51°53' E 004°25'0 0.0
2014-Sep-08 13:33N 51°53' E 004°25'0 0.0
2014-Sep-08 12:33N 51°53' E 004°25'0 0.0
2014-Sep-08 11:33N 51°53' E 004°25'0 0.0
2014-Sep-08 10:33N 51°53' E 004°25'0 0.0
2014-Sep-08 09:34N 51°53' E 004°25'0 0.0
2014-Sep-08 08:33N 51°53' E 004°25'0 0.0
2014-Sep-08 07:33N 51°53' E 004°25'0 0.0
2014-Sep-08 06:34N 51°53' E 004°25'0 0.0
2014-Sep-08 05:34N 51°53' E 004°25'0 0.0
2014-Sep-08 04:33N 51°53' E 004°25'0 0.0
2014-Sep-08 03:34N 51°53' E 004°25'0 0.0
2014-Sep-08 02:33N 51°53' E 004°25'0 0.0
2014-Sep-08 01:33N 51°53' E 004°25'0 0.0
2014-Sep-08 00:33N 51°53' E 004°25'0 0.1
2014-Sep-07 23:34N 51°53' E 004°25'0 0.4
2014-Sep-07 22:34N 51°53' E 004°25'6 5.8
2014-Sep-07 21:33N 51°54' E 004°15'1111.4
2014-Sep-07 20:33N 52°00' E 003°60'1413.9
2014-Sep-07 19:33N 52°04' E 003°38'7217.5
2014-Sep-07 15:28N 52°45' E 002°01'1617.9
2014-Sep-07 14:33N 52°53' E 001°39'1717.2
2014-Sep-07 13:33N 53°07' E 001°22'5217.3
2014-Sep-07 10:32N 53°51' E 000°33'1717.3
2014-Sep-07 09:33N 54°03' E 000°14'1717.0
2014-Sep-07 08:33N 54°16' W 000°06'1717.1
2014-Sep-07 07:33N 54°28' W 000°26'27 1.9
2014-Sep-06 17:29N 54°37' W 001°09'3317.2
2014-Sep-06 15:33N 54°55' W 000°21'  
Track history (hours):
 
Tides and Currents Weather Stations Pressure Air Temp Water Temp Dewpoint Dewpoint Depression Visibility Wind Speed Wind Dir Waves Ship Positions

Containerships 6

Last reported at 2014-Sep-16 10:19 UTC. Time now 2014-Sep-16 15:26 UTC.
Position N 57°49' E 010°25'.

Length 155 m; beam 21.8 m; draft 8.9 m.

Type: Ship (hazmat cat A). MMSI: 211315096.

Date/timePositionNaut miles runAvg speedWind from/ knotsBaromVisibWave heightAir tempDewpointWater temp
2014-Sep-16 10:19N 57°49' E 010°25'1316.9
2014-Sep-16 09:33N 57°47' E 010°49'1818.5
2014-Sep-16 08:33N 57°35' E 011°15'1717.1
2014-Sep-16 07:33N 57°24' E 011°39'1817.7
2014-Sep-16 06:33N 57°06' E 011°40'1818.0
2014-Sep-16 05:33N 56°49' E 011°51'1615.9
2014-Sep-16 04:33N 56°34' E 011°42'1716.8
2014-Sep-16 03:33N 56°20' E 011°27'1716.7
2014-Sep-16 02:34N 56°06' E 011°09'3816.4
2014-Sep-16 00:14N 55°29' E 010°54'1617.6
2014-Sep-15 23:19N 55°14' E 011°06'3316.8
2014-Sep-15 21:21N 54°42' E 010°54'1518.7
2014-Sep-15 20:34N 54°34' E 011°15'1918.7
2014-Sep-15 19:33N 54°26' E 011°45'1616.3
2014-Sep-15 18:33N 54°29' E 012°12'1817.5
2014-Sep-15 17:33N 54°43' E 012°32'1817.8
2014-Sep-15 16:33N 54°51' E 012°60'1818.1
2014-Sep-15 15:34N 54°57' E 013°29'1817.8
2014-Sep-15 14:33N 55°03' E 013°58'1817.6
2014-Sep-15 13:33N 55°15' E 014°21'1818.1
2014-Sep-15 12:33N 55°29' E 014°41'1818.1
2014-Sep-15 11:33N 55°38' E 015°09'6218.2
2014-Sep-15 08:10N 56°09' E 016°45'5418.0
2014-Sep-15 05:11N 56°42' E 018°01'1118.2
2014-Sep-15 04:33N 56°48' E 018°18'1818.3
2014-Sep-15 03:33N 56°57' E 018°47'2018.0
2014-Sep-15 02:27N 57°07' E 019°19'186 5.3
2014-Sep-13 15:24N 59°34' E 022°57'1618.3
2014-Sep-13 14:33N 59°38' E 023°27'1818.2
2014-Sep-13 13:33N 59°44' E 024°01'1615.9
2014-Sep-13 12:33N 59°48' E 024°32'25 8.2
2014-Sep-13 09:31N 60°04' E 025°09'7 1.4
2014-Sep-13 04:32N 60°11' E 025°13'3112.6
2014-Sep-13 02:05N 59°60' E 026°10'1019.1
2014-Sep-13 01:34N 60°01' E 026°30'1918.3
2014-Sep-13 00:32N 60°01' E 027°08'10 0.5
2014-Sep-12 05:26N 59°59' E 026°48'1516.7
2014-Sep-12 04:34N 59°57' E 026°19'1917.3
2014-Sep-12 03:27N 59°52' E 025°42'3317.4
2014-Sep-12 01:33N 59°45' E 024°38'2117.0
2014-Sep-12 00:20N 59°39' E 023°58'1317.2
2014-Sep-11 23:33N 59°35' E 023°34'318 8.5
2014-Sep-10 10:13N 55°56' E 016°21'1517.3
2014-Sep-10 09:21N 55°48' E 015°58'1617.7
2014-Sep-10 08:27N 55°41' E 015°33'1617.7
2014-Sep-10 07:33N 55°33' E 015°09'1817.8
2014-Sep-10 06:33N 55°25' E 014°41'1717.3
2014-Sep-10 05:33N 55°11' E 014°22'1716.9
2014-Sep-10 04:33N 55°00' E 013°60'1717.4
2014-Sep-10 03:33N 54°54' E 013°31'138136.3
2014-Sep-10 02:33N 54°18' E 009°42'104104.7
2014-Sep-10 01:33N 54°42' E 012°36'1717.3
2014-Sep-10 00:33N 54°30' E 012°14'1514.9
2014-Sep-09 23:33N 54°24' E 011°50'97 8.6
2014-Sep-09 12:16N 53°55' E 009°11'2 3.0
2014-Sep-09 11:31N 53°54' E 009°09'1 1.5
2014-Sep-09 10:33N 53°53' E 009°06'1 1.2
2014-Sep-09 09:33N 53°52' E 009°05'1312.6
2014-Sep-09 08:33N 53°52' E 008°44'1818.2
2014-Sep-09 07:33N 53°59' E 008°15'1918.2
2014-Sep-09 06:30N 53°56' E 007°43'5518.0
2014-Sep-09 03:29N 53°44' E 006°13'1617.5
2014-Sep-09 02:33N 53°39' E 005°47'1717.3
2014-Sep-09 01:33N 53°33' E 005°20'1717.0
2014-Sep-09 00:34N 53°27' E 004°53'1616.2
2014-Sep-08 23:33N 53°14' E 004°36'3717.0
2014-Sep-08 21:24N 52°42' E 004°07'1417.0
2014-Sep-08 20:33N 52°30' E 003°54'1717.0
2014-Sep-08 19:34N 52°13' E 003°54'1313.2
2014-Sep-08 18:34N 52°00' E 004°01'1413.5
2014-Sep-08 17:33N 51°54' E 004°20'3 3.3
2014-Sep-08 16:33N 51°53' E 004°25'0 0.0
2014-Sep-08 15:33N 51°53' E 004°25'0 0.0
2014-Sep-08 14:34N 51°53' E 004°25'0 0.0
2014-Sep-08 13:33N 51°53' E 004°25'0 0.0
2014-Sep-08 12:33N 51°53' E 004°25'0 0.0
2014-Sep-08 11:33N 51°53' E 004°25'0 0.0
2014-Sep-08 10:33N 51°53' E 004°25'0 0.0
2014-Sep-08 09:34N 51°53' E 004°25'0 0.0
2014-Sep-08 08:33N 51°53' E 004°25'0 0.0
2014-Sep-08 07:33N 51°53' E 004°25'0 0.0
2014-Sep-08 06:34N 51°53' E 004°25'0 0.0
2014-Sep-08 05:34N 51°53' E 004°25'0 0.0
2014-Sep-08 04:33N 51°53' E 004°25'0 0.0
2014-Sep-08 03:34N 51°53' E 004°25'0 0.0
2014-Sep-08 02:33N 51°53' E 004°25'0 0.0
2014-Sep-08 01:33N 51°53' E 004°25'0 0.0
2014-Sep-08 00:33N 51°53' E 004°25'0 0.1
2014-Sep-07 23:34N 51°53' E 004°25'0 0.4
2014-Sep-07 22:34N 51°53' E 004°25'6 5.8
2014-Sep-07 21:33N 51°54' E 004°15'1111.4
2014-Sep-07 20:33N 52°00' E 003°60'1413.9
2014-Sep-07 19:33N 52°04' E 003°38'7217.5
2014-Sep-07 15:28N 52°45' E 002°01'1617.9
2014-Sep-07 14:33N 52°53' E 001°39'1717.2
2014-Sep-07 13:33N 53°07' E 001°22'5217.3
2014-Sep-07 10:32N 53°51' E 000°33'1717.3
2014-Sep-07 09:33N 54°03' E 000°14'1717.0
2014-Sep-07 08:33N 54°16' W 000°06'1717.1
2014-Sep-07 07:33N 54°28' W 000°26'27 1.9
2014-Sep-06 17:29N 54°37' W 001°09'3317.2
2014-Sep-06 15:33N 54°55' W 000°21'  

Dump ship's entire track history